createdAt,value
2022-11-27T00:01:12.064Z,15.93
2022-11-27T00:03:39.686Z,20.52
2022-11-27T00:06:07.183Z,13.60
2022-11-27T00:08:33.753Z,12.20
2022-11-27T00:11:12.514Z,15.45
2022-11-27T00:13:39.131Z,16.33
2022-11-27T00:16:06.213Z,18.63
2022-11-27T00:18:33.401Z,17.50
2022-11-27T00:21:27.025Z,16.23
2022-11-27T00:23:54.950Z,16.40
2022-11-27T00:26:21.887Z,15.75
2022-11-27T00:28:48.622Z,15.50
2022-11-27T00:31:16.240Z,14.50
2022-11-27T00:33:43.322Z,15.23
2022-11-27T00:36:10.311Z,19.35
2022-11-27T00:38:39.215Z,18.00
2022-11-27T00:41:07.936Z,14.75
2022-11-27T00:43:43.629Z,16.50
2022-11-27T00:46:10.872Z,15.55
2022-11-27T00:48:37.478Z,17.20
2022-11-27T00:51:06.546Z,12.63
2022-11-27T00:53:33.683Z,16.15
2022-11-27T00:56:00.785Z,15.18
2022-11-27T00:58:27.959Z,13.73
2022-11-27T01:00:59.525Z,13.90
2022-11-27T01:03:26.722Z,14.82
2022-11-27T01:05:53.268Z,16.55
2022-11-27T01:08:20.074Z,14.57
2022-11-27T01:10:55.296Z,15.35
2022-11-27T01:13:30.232Z,19.08
2022-11-27T01:16:18.650Z,18.20
2022-11-27T01:18:47.158Z,18.58
2022-11-27T01:21:16.097Z,17.50
2022-11-27T01:23:42.813Z,15.82
2022-11-27T01:26:11.140Z,17.80
2022-11-27T01:28:39.765Z,17.58
2022-11-27T01:31:09.093Z,14.47
2022-11-27T01:33:35.650Z,17.95
2022-11-27T01:36:05.144Z,17.23
2022-11-27T01:41:07.835Z,17.15
2022-11-27T01:43:37.074Z,12.70
2022-11-27T01:46:03.879Z,14.35
2022-11-27T01:48:30.469Z,14.40
2022-11-27T01:50:57.008Z,20.95
2022-11-27T01:53:23.531Z,16.50
2022-11-27T01:55:55.225Z,14.90
2022-11-27T01:58:24.613Z,21.42
2022-11-27T02:00:51.630Z,17.65
2022-11-27T02:03:18.261Z,16.40
2022-11-27T02:05:45.007Z,18.27
2022-11-27T02:08:14.829Z,15.00
2022-11-27T02:10:48.857Z,20.05
2022-11-27T02:13:53.831Z,13.13
2022-11-27T02:16:36.539Z,15.57
2022-11-27T02:19:24.436Z,13.45
2022-11-27T02:22:03.498Z,15.82
2022-11-27T02:25:03.109Z,17.75
2022-11-27T02:27:57.439Z,16.52
2022-11-27T02:30:24.189Z,15.48
2022-11-27T02:33:00.247Z,16.33
2022-11-27T02:35:31.621Z,19.20
2022-11-27T02:37:59.764Z,18.50
2022-11-27T02:41:07.589Z,21.50
2022-11-27T02:43:37.204Z,20.77
2022-11-27T02:46:05.582Z,18.92
2022-11-27T02:48:38.842Z,19.27
2022-11-27T02:51:06.151Z,16.92
2022-11-27T02:53:40.934Z,21.83
2022-11-27T02:56:12.011Z,19.15
2022-11-27T02:58:39.110Z,20.60
2022-11-27T03:01:06.841Z,20.67
2022-11-27T03:03:37.029Z,19.65
2022-11-27T03:06:09.373Z,21.02
2022-11-27T03:08:42.763Z,26.30
2022-11-27T03:11:11.531Z,22.05
2022-11-27T03:13:40.802Z,27.30
2022-11-27T03:16:12.569Z,25.98
2022-11-27T03:19:11.039Z,28.13
2022-11-27T03:21:44.131Z,22.08
2022-11-27T03:24:12.170Z,27.13
2022-11-27T03:26:40.042Z,25.83
2022-11-27T03:29:13.057Z,30.40
2022-11-27T03:31:40.246Z,18.95
2022-11-27T03:34:07.354Z,24.48
2022-11-27T03:36:33.933Z,23.30
2022-11-27T03:39:00.652Z,24.33
2022-11-27T03:41:52.866Z,24.08
2022-11-27T03:44:53.493Z,27.42
2022-11-27T03:47:19.985Z,26.58
2022-11-27T03:50:16.963Z,25.88
2022-11-27T03:52:56.781Z,27.20
2022-11-27T03:55:35.449Z,21.27
2022-11-27T03:58:09.223Z,28.50
2022-11-27T04:00:39.754Z,19.95
2022-11-27T04:03:09.675Z,24.92
2022-11-27T04:05:36.321Z,33.40
2022-11-27T04:08:02.862Z,25.08
2022-11-27T04:10:29.399Z,20.88
2022-11-27T04:12:55.992Z,23.60
2022-11-27T04:15:22.624Z,24.77
2022-11-27T04:17:49.556Z,21.77
2022-11-27T04:20:16.103Z,22.35
2022-11-27T04:22:42.657Z,24.13
2022-11-27T04:25:09.680Z,24.10
2022-11-27T04:27:36.239Z,22.15
2022-11-27T04:30:03.520Z,26.77
2022-11-27T04:32:30.101Z,25.02
2022-11-27T04:34:56.607Z,23.50
2022-11-27T04:37:23.071Z,25.70
2022-11-27T04:39:49.632Z,30.55
2022-11-27T04:42:16.261Z,32.45
2022-11-27T04:44:43.069Z,26.23
2022-11-27T04:47:09.923Z,24.08
2022-11-27T04:49:36.470Z,31.42
2022-11-27T04:52:03.222Z,29.88
2022-11-27T04:54:29.775Z,29.13
2022-11-27T04:56:56.327Z,23.92
2022-11-27T04:59:23.169Z,27.73
2022-11-27T05:01:50.072Z,27.75
2022-11-27T05:04:16.834Z,26.45
2022-11-27T05:06:43.423Z,25.42
2022-11-27T05:09:09.981Z,26.08
2022-11-27T05:11:36.579Z,27.67
2022-11-27T05:14:15.192Z,23.48
2022-11-27T05:16:42.582Z,21.17
2022-11-27T05:19:10.682Z,23.02
2022-11-27T05:21:37.759Z,22.83
2022-11-27T05:24:04.981Z,23.88
2022-11-27T05:26:31.865Z,20.02
2022-11-27T05:28:58.765Z,21.75
2022-11-27T05:31:25.549Z,16.83
2022-11-27T05:33:52.308Z,21.40
2022-11-27T05:36:18.852Z,19.00
2022-11-27T05:38:46.099Z,19.85
2022-11-27T05:41:12.927Z,21.73
2022-11-27T05:43:39.557Z,18.27
2022-11-27T05:46:07.304Z,20.10
2022-11-27T05:48:35.206Z,15.68
2022-11-27T05:51:05.345Z,15.43
2022-11-27T05:53:32.290Z,17.67
2022-11-27T05:56:13.169Z,25.10
2022-11-27T05:58:40.247Z,21.17
2022-11-27T06:01:07.469Z,19.30
2022-11-27T06:03:34.200Z,16.33
2022-11-27T06:06:12.288Z,19.52
2022-11-27T06:08:39.417Z,14.55
2022-11-27T06:11:11.020Z,15.02
2022-11-27T06:13:37.845Z,17.85
2022-11-27T06:16:23.905Z,19.38
2022-11-27T06:18:52.046Z,17.00
2022-11-27T06:21:19.640Z,17.05
2022-11-27T06:23:46.317Z,17.98
2022-11-27T06:26:21.802Z,17.65
2022-11-27T06:28:48.734Z,18.50
2022-11-27T06:31:18.535Z,18.02
2022-11-27T06:33:46.648Z,17.30
2022-11-27T06:36:13.276Z,18.55
2022-11-27T06:38:39.825Z,21.30
2022-11-27T06:41:11.476Z,17.20
2022-11-27T06:43:38.620Z,18.20
2022-11-27T06:46:06.699Z,16.73
2022-11-27T06:48:34.154Z,19.23
2022-11-27T06:51:06.125Z,41.15
2022-11-27T06:53:36.974Z,18.05
2022-11-27T06:56:08.994Z,20.33
2022-11-27T06:58:36.191Z,21.50
2022-11-27T07:01:07.563Z,19.60
2022-11-27T07:03:34.659Z,16.10
2022-11-27T07:06:03.308Z,18.60
2022-11-27T07:08:30.249Z,18.33
2022-11-27T07:11:09.016Z,21.27
2022-11-27T07:13:35.836Z,17.92
2022-11-27T07:16:05.148Z,18.42
2022-11-27T07:18:38.592Z,19.50
2022-11-27T07:21:05.250Z,17.65
2022-11-27T07:23:31.874Z,15.43
2022-11-27T07:26:09.679Z,20.23
2022-11-27T07:28:36.239Z,18.77
2022-11-27T07:31:04.295Z,18.55
2022-11-27T07:33:31.300Z,18.90
2022-11-27T07:36:10.258Z,15.32
2022-11-27T07:38:36.771Z,17.48
2022-11-27T07:41:05.164Z,18.75
2022-11-27T07:43:32.846Z,17.05
2022-11-27T07:46:03.810Z,17.88
2022-11-27T07:48:30.293Z,20.13
2022-11-27T07:50:56.824Z,18.58
2022-11-27T07:53:23.351Z,21.90
2022-11-27T07:55:49.879Z,19.35
2022-11-27T07:58:16.461Z,19.58
2022-11-27T08:00:43.303Z,15.60
2022-11-27T08:03:10.877Z,14.30
2022-11-27T08:05:37.828Z,18.30
2022-11-27T08:08:04.922Z,18.27
2022-11-27T08:10:35.085Z,18.70
2022-11-27T08:13:01.570Z,15.63
2022-11-27T08:15:28.202Z,16.15
2022-11-27T08:17:54.896Z,17.23
2022-11-27T08:20:21.693Z,16.27
2022-11-27T08:22:48.377Z,16.27
2022-11-27T08:25:15.561Z,16.35
2022-11-27T08:27:42.125Z,13.90
2022-11-27T08:30:09.757Z,15.32
2022-11-27T08:32:41.093Z,15.48
2022-11-27T08:35:08.239Z,13.65
2022-11-27T08:37:35.228Z,14.98
2022-11-27T08:40:01.982Z,14.88
2022-11-27T08:42:28.628Z,15.32
2022-11-27T08:44:55.252Z,14.80
2022-11-27T08:47:21.777Z,11.73
2022-11-27T08:49:48.510Z,15.95
2022-11-27T08:52:15.071Z,12.40
2022-11-27T08:54:42.148Z,13.38
2022-11-27T08:57:08.921Z,13.23
2022-11-27T08:59:35.528Z,12.98
2022-11-27T09:02:02.030Z,13.52
2022-11-27T09:04:29.027Z,13.68
2022-11-27T09:06:58.701Z,14.40
2022-11-27T09:09:25.524Z,11.32
2022-11-27T09:11:54.483Z,10.75
2022-11-27T09:14:21.013Z,11.25
2022-11-27T09:16:47.652Z,11.57
2022-11-27T09:19:14.164Z,9.55
2022-11-27T09:21:40.694Z,13.85
2022-11-27T09:24:07.390Z,9.32
2022-11-27T09:26:33.899Z,11.25
2022-11-27T09:29:00.481Z,12.00
2022-11-27T09:31:27.347Z,7.78
2022-11-27T09:33:54.006Z,10.45
2022-11-27T09:36:23.059Z,12.07
2022-11-27T09:38:50.220Z,9.60
2022-11-27T09:41:19.676Z,10.07
2022-11-27T09:46:32.208Z,9.30
2022-11-27T09:49:01.334Z,11.80
2022-11-27T09:51:34.212Z,6.68
2022-11-27T09:54:17.500Z,8.63
2022-11-27T09:56:46.309Z,11.52
2022-11-27T09:59:18.787Z,9.50
2022-11-27T10:01:50.568Z,7.40
2022-11-27T10:04:19.727Z,6.82
2022-11-27T10:07:08.159Z,7.95
2022-11-27T10:09:43.806Z,8.35
2022-11-27T10:12:37.825Z,6.00
2022-11-27T10:15:04.873Z,8.48
2022-11-27T10:17:49.045Z,9.75
2022-11-27T10:20:29.018Z,9.35
2022-11-27T10:23:33.342Z,7.53
2022-11-27T10:26:09.793Z,8.65
2022-11-27T10:28:43.427Z,10.98
2022-11-27T10:31:13.769Z,7.70
2022-11-27T10:33:53.994Z,8.77
2022-11-27T10:36:46.534Z,8.20
2022-11-27T10:39:21.627Z,11.00
2022-11-27T10:41:59.860Z,10.48
2022-11-27T10:44:48.365Z,6.20
2022-11-27T10:47:15.800Z,8.53
2022-11-27T10:49:42.990Z,8.57
2022-11-27T10:52:14.519Z,5.22
2022-11-27T10:54:43.296Z,9.20
2022-11-27T10:57:13.070Z,5.63
2022-11-27T11:02:26.717Z,5.43
2022-11-27T11:05:16.200Z,9.32
2022-11-27T11:07:52.464Z,10.20
2022-11-27T11:10:34.279Z,8.55
2022-11-27T11:13:09.035Z,4.40
2022-11-27T11:15:53.763Z,8.13
2022-11-27T11:18:23.467Z,7.70
2022-11-27T11:20:51.908Z,5.97
2022-11-27T11:23:31.118Z,4.15
2022-11-27T11:26:01.416Z,6.25
2022-11-27T11:28:28.151Z,5.53
2022-11-27T11:31:09.962Z,7.28
2022-11-27T11:34:12.766Z,4.80
2022-11-27T11:40:35.279Z,6.47
2022-11-27T11:43:02.559Z,9.63
2022-11-27T11:45:32.878Z,6.93
2022-11-27T11:48:26.635Z,4.68
2022-11-27T11:51:11.652Z,4.85
2022-11-27T11:53:45.548Z,5.15
2022-11-27T11:56:34.292Z,4.88
2022-11-27T11:59:07.359Z,4.72
2022-11-27T12:02:02.525Z,5.05
2022-11-27T12:05:02.936Z,4.20
2022-11-27T12:07:29.429Z,4.85
2022-11-27T12:10:05.889Z,4.90
2022-11-27T12:12:54.423Z,6.45
2022-11-27T12:15:31.430Z,5.03
2022-11-27T12:18:16.856Z,8.68
2022-11-27T12:20:46.356Z,7.90
2022-11-27T12:25:49.935Z,4.68
2022-11-27T12:28:31.235Z,5.32
2022-11-27T12:31:07.471Z,6.18
2022-11-27T12:33:51.562Z,7.20
2022-11-27T12:36:44.243Z,7.38
2022-11-27T12:39:32.464Z,7.32
2022-11-27T12:42:02.122Z,6.95
2022-11-27T12:44:32.409Z,7.32
2022-11-27T12:47:12.195Z,8.00
2022-11-27T12:49:42.922Z,7.65
2022-11-27T12:52:34.642Z,8.85
2022-11-27T12:55:15.977Z,8.73
2022-11-27T12:57:51.889Z,8.68
2022-11-27T13:00:20.821Z,12.45
2022-11-27T13:03:01.045Z,8.68
2022-11-27T13:05:31.351Z,8.35
2022-11-27T13:08:09.047Z,9.30
2022-11-27T13:10:39.797Z,8.50
2022-11-27T13:13:08.158Z,9.77
2022-11-27T13:15:40.758Z,11.32
2022-11-27T13:18:35.096Z,10.43
2022-11-27T13:21:06.619Z,12.70
2022-11-27T13:23:34.073Z,14.00
2022-11-27T13:26:15.220Z,12.70
2022-11-27T13:28:48.763Z,11.60
2022-11-27T13:31:21.485Z,11.80
2022-11-27T13:33:49.253Z,11.30
2022-11-27T13:36:32.118Z,12.38
2022-11-27T13:39:02.187Z,15.13
2022-11-27T13:41:35.326Z,14.02
2022-11-27T13:44:02.508Z,13.68
2022-11-27T13:46:30.967Z,12.25
2022-11-27T13:49:05.330Z,14.90
2022-11-27T13:51:37.131Z,13.50
2022-11-27T13:54:26.015Z,20.30
2022-11-27T13:56:55.506Z,18.83
2022-11-27T13:59:24.426Z,18.30
2022-11-27T14:02:01.849Z,16.15
2022-11-27T14:04:30.902Z,23.05
2022-11-27T14:07:10.291Z,17.88
2022-11-27T14:12:18.108Z,24.23
2022-11-27T14:14:45.574Z,22.10
2022-11-27T14:17:26.600Z,22.27
2022-11-27T14:20:25.570Z,25.77
2022-11-27T14:23:13.712Z,21.35
2022-11-27T14:25:41.074Z,22.30
2022-11-27T14:28:22.080Z,21.65
2022-11-27T14:30:57.464Z,22.48
2022-11-27T14:34:13.459Z,22.02
2022-11-27T14:36:34.740Z,18.17
2022-11-27T14:41:29.269Z,24.33
2022-11-27T14:44:06.666Z,21.08
2022-11-27T14:46:35.531Z,18.35
2022-11-27T14:49:02.067Z,31.88
2022-11-27T14:51:30.826Z,20.83
2022-11-27T14:54:19.247Z,32.45
2022-11-27T14:56:46.060Z,30.50
2022-11-27T14:59:18.749Z,26.00
2022-11-27T15:01:46.718Z,24.10
2022-11-27T15:04:27.668Z,23.80
2022-11-27T15:06:55.304Z,26.65
2022-11-27T15:09:32.393Z,24.90
2022-11-27T15:12:05.828Z,23.27
2022-11-27T15:14:32.568Z,25.55
2022-11-27T15:16:59.254Z,23.70
2022-11-27T15:19:34.704Z,27.30
2022-11-27T15:22:01.854Z,27.75
2022-11-27T15:24:35.348Z,25.05
2022-11-27T15:27:28.097Z,18.65
2022-11-27T15:30:08.938Z,21.73
2022-11-27T15:32:53.379Z,22.48
2022-11-27T15:35:26.138Z,20.30
2022-11-27T15:37:54.856Z,16.17
2022-11-27T15:40:33.374Z,25.70
2022-11-27T15:43:00.005Z,21.87
2022-11-27T15:45:31.600Z,17.17
2022-11-27T15:48:00.321Z,15.85
2022-11-27T15:50:28.193Z,18.50
2022-11-27T15:52:54.797Z,12.90
2022-11-27T15:55:21.837Z,13.52
2022-11-27T15:57:48.433Z,17.33
2022-11-27T16:00:15.516Z,12.02
2022-11-27T16:02:42.554Z,15.25
2022-11-27T16:05:09.676Z,16.05
2022-11-27T16:07:37.778Z,14.73
2022-11-27T16:10:05.749Z,18.40
2022-11-27T16:12:32.335Z,15.70
2022-11-27T16:14:59.174Z,17.02
2022-11-27T16:17:25.727Z,17.63
2022-11-27T16:19:52.311Z,20.42
2022-11-27T16:22:19.053Z,15.80
2022-11-27T16:24:45.640Z,17.35
2022-11-27T16:27:12.154Z,22.13
2022-11-27T16:29:38.671Z,18.23
2022-11-27T16:32:06.002Z,19.98
2022-11-27T16:34:32.803Z,21.27
2022-11-27T16:36:59.371Z,19.67
2022-11-27T16:39:25.971Z,21.25
2022-11-27T16:41:52.580Z,23.45
2022-11-27T16:44:19.138Z,22.02
2022-11-27T16:46:45.921Z,24.52
2022-11-27T16:49:13.028Z,23.70
2022-11-27T16:51:40.170Z,16.90
2022-11-27T16:54:10.482Z,21.50
2022-11-27T16:56:38.445Z,15.65
2022-11-27T16:59:09.824Z,19.45
2022-11-27T17:01:37.100Z,17.40
2022-11-27T17:04:08.254Z,17.42
2022-11-27T17:06:35.894Z,15.30
2022-11-27T17:09:05.737Z,19.13
2022-11-27T17:11:34.632Z,16.30
2022-11-27T17:14:03.492Z,20.17
2022-11-27T17:16:30.286Z,23.17
2022-11-27T17:18:57.156Z,22.48
2022-11-27T17:21:26.469Z,25.55
2022-11-27T17:23:58.413Z,24.38
2022-11-27T17:26:26.339Z,23.27
2022-11-27T17:28:56.241Z,22.30
2022-11-27T17:31:33.815Z,21.77
2022-11-27T17:34:10.188Z,23.17
2022-11-27T17:36:37.533Z,17.83
2022-11-27T17:39:05.470Z,22.48
2022-11-27T17:41:32.026Z,18.58
2022-11-27T17:43:58.744Z,18.67
2022-11-27T17:46:27.361Z,21.85
2022-11-27T17:48:54.575Z,18.40
2022-11-27T17:51:21.631Z,18.58
2022-11-27T17:53:48.368Z,22.30
2022-11-27T17:56:19.110Z,20.38
2022-11-27T17:58:46.710Z,19.98
2022-11-27T18:01:22.045Z,18.55
2022-11-27T18:03:48.799Z,26.00
2022-11-27T18:06:18.088Z,22.27
2022-11-27T18:08:46.270Z,20.80
2022-11-27T18:11:15.931Z,22.13
2022-11-27T18:13:42.648Z,19.38
2022-11-27T18:16:17.907Z,25.13
2022-11-27T18:18:44.991Z,18.80
2022-11-27T18:21:18.346Z,17.25
2022-11-27T18:24:20.802Z,18.13
2022-11-27T18:27:00.560Z,22.27
2022-11-27T18:29:21.504Z,18.17
2022-11-27T18:31:48.275Z,22.85
2022-11-27T18:34:15.110Z,22.40
2022-11-27T18:36:41.728Z,19.38
2022-11-27T18:39:08.297Z,16.83
2022-11-27T18:41:34.967Z,19.23
2022-11-27T18:44:01.555Z,18.17
2022-11-27T18:46:28.505Z,19.30
2022-11-27T18:48:55.056Z,19.25
2022-11-27T18:51:23.783Z,17.33
2022-11-27T18:53:51.413Z,17.75
2022-11-27T18:56:23.251Z,18.95
2022-11-27T18:58:50.300Z,18.65
2022-11-27T19:01:22.019Z,16.52
2022-11-27T19:03:48.955Z,18.10
2022-11-27T19:06:16.915Z,21.85
2022-11-27T19:08:44.627Z,17.90
2022-11-27T19:11:13.249Z,19.33
2022-11-27T19:13:40.382Z,24.70
2022-11-27T19:16:09.364Z,21.50
2022-11-27T19:18:36.983Z,24.48
2022-11-27T19:21:10.545Z,23.73
2022-11-27T19:23:39.359Z,25.38
2022-11-27T19:26:11.949Z,27.38
2022-11-27T19:28:38.773Z,22.00
2022-11-27T19:31:10.276Z,25.98
2022-11-27T19:33:37.419Z,28.88
2022-11-27T19:36:08.530Z,30.50
2022-11-27T19:38:35.957Z,30.08
2022-11-27T19:41:03.780Z,31.20
2022-11-27T19:43:30.319Z,30.55
2022-11-27T19:45:56.867Z,33.20
2022-11-27T19:48:23.708Z,32.67
2022-11-27T19:50:51.684Z,32.28
2022-11-27T19:53:18.621Z,33.85
2022-11-27T19:55:52.880Z,31.95
2022-11-27T19:58:19.451Z,37.15
2022-11-27T20:00:48.279Z,32.60
2022-11-27T20:03:15.098Z,32.47
2022-11-27T20:06:07.621Z,31.38
2022-11-27T20:08:34.780Z,27.65
2022-11-27T20:11:01.839Z,38.75
2022-11-27T20:13:28.534Z,32.72
2022-11-27T20:15:55.676Z,39.63
2022-11-27T20:18:22.417Z,30.90
2022-11-27T20:20:49.305Z,40.20
2022-11-27T20:23:16.209Z,34.42
2022-11-27T20:25:42.834Z,31.50
2022-11-27T20:28:10.155Z,29.17
2022-11-27T20:30:38.919Z,39.60
2022-11-27T20:33:07.764Z,26.50
2022-11-27T20:35:34.656Z,31.30
2022-11-27T20:38:01.273Z,31.00
2022-11-27T20:40:28.490Z,40.83
2022-11-27T20:42:55.052Z,37.70
2022-11-27T20:45:21.670Z,35.40
2022-11-27T20:47:48.251Z,35.13
2022-11-27T20:50:14.823Z,33.78
2022-11-27T20:52:41.737Z,31.65
2022-11-27T20:55:08.766Z,31.63
2022-11-27T20:57:35.323Z,30.00
2022-11-27T21:00:01.892Z,29.08
2022-11-27T21:02:28.533Z,25.35
2022-11-27T21:04:55.132Z,27.63
2022-11-27T21:07:21.834Z,29.98
2022-11-27T21:09:48.436Z,26.17
2022-11-27T21:12:15.568Z,27.88
2022-11-27T21:14:44.199Z,25.13
2022-11-27T21:17:10.854Z,27.13
2022-11-27T21:19:37.406Z,27.60
2022-11-27T21:22:04.019Z,25.70
2022-11-27T21:24:30.613Z,22.13
2022-11-27T21:26:57.249Z,22.00
2022-11-27T21:29:25.887Z,23.98
2022-11-27T21:31:53.439Z,26.40
2022-11-27T21:34:19.967Z,20.77
2022-11-27T21:36:46.562Z,21.95
2022-11-27T21:39:20.005Z,24.10
2022-11-27T21:42:02.782Z,24.35
2022-11-27T21:44:29.308Z,20.65
2022-11-27T21:46:55.943Z,21.73
2022-11-27T21:49:22.564Z,20.25
2022-11-27T21:51:53.328Z,20.63
2022-11-27T21:54:20.718Z,20.65
2022-11-27T21:56:50.924Z,18.70
2022-11-27T21:59:17.400Z,19.45
2022-11-27T22:01:46.962Z,22.02
2022-11-27T22:04:13.774Z,20.73
2022-11-27T22:06:41.739Z,24.75
2022-11-27T22:09:14.756Z,16.65
2022-11-27T22:11:42.084Z,17.08
2022-11-27T22:14:08.981Z,19.55
2022-11-27T22:16:44.135Z,19.08
2022-11-27T22:19:11.760Z,23.48
2022-11-27T22:21:38.318Z,16.00
2022-11-27T22:24:05.001Z,21.10
2022-11-27T22:26:31.715Z,22.65
2022-11-27T22:28:58.621Z,21.75
2022-11-27T22:31:31.090Z,23.05
2022-11-27T22:33:57.990Z,19.30
2022-11-27T22:36:25.600Z,17.40
2022-11-27T22:38:53.949Z,20.35
2022-11-27T22:41:22.480Z,21.67
2022-11-27T22:43:49.828Z,17.98
2022-11-27T22:46:16.341Z,19.02
2022-11-27T22:48:43.398Z,21.42
2022-11-27T22:51:10.418Z,15.90
2022-11-27T22:53:37.499Z,24.67
2022-11-27T22:56:06.162Z,19.85
2022-11-27T22:58:35.208Z,20.13
2022-11-27T23:01:05.374Z,22.70
2022-11-27T23:03:32.166Z,21.13
2022-11-27T23:05:59.369Z,18.88
2022-11-27T23:08:26.019Z,23.63
2022-11-27T23:10:53.023Z,24.17
2022-11-27T23:13:19.687Z,16.13
2022-11-27T23:15:46.732Z,19.85
2022-11-27T23:18:13.363Z,20.75
2022-11-27T23:20:41.869Z,21.58
2022-11-27T23:23:08.508Z,21.80
2022-11-27T23:25:35.068Z,22.70
2022-11-27T23:28:01.591Z,21.85
2022-11-27T23:30:28.125Z,20.02
2022-11-27T23:32:54.946Z,17.80
2022-11-27T23:35:21.663Z,20.63
2022-11-27T23:37:48.145Z,20.70
2022-11-27T23:40:15.038Z,19.88
2022-11-27T23:42:41.646Z,18.77
2022-11-27T23:45:09.043Z,18.73
2022-11-27T23:47:35.577Z,17.23
2022-11-27T23:50:03.280Z,15.63
2022-11-27T23:52:29.761Z,20.33
2022-11-27T23:54:56.344Z,18.02
2022-11-27T23:57:22.827Z,16.92
2022-11-27T23:59:49.307Z,15.88
